Time;durP1;ratioP1;P1;durP2;ratioP2;P2;SDS_P1;SDS_P2;PMS_P1;PMS_P2;Temp;Humidity;BMP_temperature;BMP_pressure;BME280_temperature;BME280_humidity;BME280_pressure;Samples;Min_cycle;Max_cycle;Signal;HPM_P1;HPM_P2
2023/05/30 00:00:25;;;;;;;16.08;7.30;;;;;;;-142.57;71.28;115900.28;4880809;29;20037;-84
2023/05/30 00:02:51;;;;;;;17.92;8.15;;;;;;;-142.57;72.83;115900.28;4881241;29;20041;-84
2023/05/30 00:05:17;;;;;;;20.25;8.35;;;;;;;-142.57;74.49;115900.28;4880857;29;20539;-84
2023/05/30 00:07:43;;;;;;;14.13;7.60;;;;;;;-142.57;74.24;115900.28;4880734;29;20047;-85
2023/05/30 00:10:08;;;;;;;15.93;7.40;;;;;;;-142.57;74.40;115900.28;4880752;29;20194;-84
2023/05/30 00:12:35;;;;;;;16.48;8.00;;;;;;;-142.57;73.72;115900.28;4880460;29;20399;-85
2023/05/30 00:15:02;;;;;;;16.70;7.45;;;;;;;-142.57;73.46;115900.28;4880483;29;20033;-83
2023/05/30 00:17:28;;;;;;;12.48;7.53;;;;;;;-142.57;74.28;115900.28;4880549;29;20185;-84
2023/05/30 00:19:54;;;;;;;12.63;7.78;;;;;;;-142.57;74.25;115900.28;4880456;29;20128;-84
2023/05/30 00:22:22;;;;;;;12.45;7.03;;;;;;;-142.57;74.48;115900.28;4880610;29;20044;-84
2023/05/30 00:24:49;;;;;;;11.68;6.57;;;;;;;-142.57;74.59;115900.28;4880374;29;20089;-85
2023/05/30 00:27:16;;;;;;;13.60;7.20;;;;;;;-142.57;75.15;115900.28;4880009;29;20062;-85
2023/05/30 00:29:42;;;;;;;14.70;6.68;;;;;;;-142.57;74.88;115900.28;4863600;29;20088;-84
2023/05/30 00:32:08;;;;;;;18.52;7.35;;;;;;;-142.57;76.09;115900.28;4862955;29;20033;-84
2023/05/30 00:34:33;;;;;;;17.20;7.50;;;;;;;-142.57;75.20;115900.28;4879706;29;20033;-84
2023/05/30 00:36:59;;;;;;;14.50;7.70;;;;;;;-142.57;77.00;115900.28;4879985;29;20123;-85
2023/05/30 00:39:25;;;;;;;14.43;7.28;;;;;;;-142.57;76.60;115900.28;4863411;29;20040;-84
2023/05/30 00:41:52;;;;;;;11.88;6.82;;;;;;;-142.57;77.63;115900.28;4880019;29;20502;-84
2023/05/30 00:44:17;;;;;;;16.38;7.32;;;;;;;-142.57;77.01;115900.28;4880009;29;20029;-84
2023/05/30 00:46:43;;;;;;;12.88;7.10;;;;;;;-142.57;76.01;115900.28;4880183;29;20041;-82
2023/05/30 00:49:08;;;;;;;13.98;7.35;;;;;;;-142.57;75.02;115900.28;4880103;29;20037;-84
2023/05/30 00:51:34;;;;;;;15.65;6.88;;;;;;;-142.57;76.71;115900.28;4863220;29;20077;-83
2023/05/30 00:54:02;;;;;;;15.68;7.82;;;;;;;-142.57;76.88;115900.28;4879898;29;20044;-83
2023/05/30 00:56:28;;;;;;;13.23;7.80;;;;;;;-142.57;76.84;115900.28;4863544;29;20451;-83
2023/05/30 00:58:55;;;;;;;14.70;7.75;;;;;;;-142.57;76.87;115900.28;4881321;29;20029;-82
2023/05/30 01:01:23;;;;;;;15.73;7.85;;;;;;;-142.57;78.73;115900.28;4878355;29;20448;-84
2023/05/30 01:03:50;;;;;;;17.05;7.40;;;;;;;-142.57;78.59;115900.28;4893900;29;20036;-82
2023/05/30 01:06:17;;;;;;;15.13;8.18;;;;;;;-142.57;81.00;115900.28;4895942;29;20039;-82
2023/05/30 01:08:45;;;;;;;13.82;7.65;;;;;;;-142.57;80.59;115900.28;4899666;29;20049;-83
2023/05/30 01:11:42;;;;;;;16.27;7.22;;;;;;;-142.57;81.49;115900.28;4883671;29;20040;-84
2023/05/30 01:14:17;;;;;;;16.42;6.80;;;;;;;-142.57;80.16;115900.28;4881174;29;20036;-85
2023/05/30 01:16:52;;;;;;;23.15;7.72;;;;;;;-142.57;81.37;115900.28;4881029;29;20131;-84
2023/05/30 01:19:17;;;;;;;13.65;7.18;;;;;;;-142.57;83.46;115900.28;4897483;29;20443;-82
2023/05/30 01:21:44;;;;;;;19.33;7.80;;;;;;;-142.57;84.21;115900.28;4880263;29;20063;-83
2023/05/30 01:24:19;;;;;;;16.48;8.10;;;;;;;-142.57;83.71;115900.28;4895340;29;20086;-83
2023/05/30 01:26:48;;;;;;;17.92;7.85;;;;;;;-142.57;85.01;115900.28;4878059;29;20444;-84
2023/05/30 01:29:17;;;;;;;11.82;7.53;;;;;;;-142.57;86.94;115900.28;4884750;29;20402;-83
2023/05/30 01:31:44;;;;;;;17.67;7.45;;;;;;;-142.57;87.86;115900.28;4880816;29;20045;-84
2023/05/30 01:34:11;;;;;;;18.55;8.00;;;;;;;-142.57;88.27;115900.28;4897552;29;20080;-84
2023/05/30 01:36:37;;;;;;;20.15;7.57;;;;;;;-142.57;88.12;115900.28;4897484;29;20043;-83
2023/05/30 01:39:06;;;;;;;14.48;7.50;;;;;;;-142.57;86.96;115900.28;4897478;29;20513;-84
2023/05/30 01:42:04;;;;;;;18.60;7.82;;;;;;;-142.57;85.59;115900.28;4897610;29;20033;-85
2023/05/30 01:44:37;;;;;;;13.25;7.50;;;;;;;-142.57;86.24;115900.28;4880344;29;20033;-84
2023/05/30 01:47:08;;;;;;;14.00;6.75;;;;;;;-142.57;84.71;115900.28;4880682;29;20057;-84
2023/05/30 01:49:55;;;;;;;12.48;7.30;;;;;;;-142.57;84.51;115900.28;4897306;29;20119;-83
2023/05/30 01:52:24;;;;;;;12.18;7.10;;;;;;;-142.57;84.87;115900.28;4881210;29;20049;-84
2023/05/30 01:54:58;;;;;;;17.02;7.00;;;;;;;-142.57;85.53;115900.28;4898220;29;20474;-83
2023/05/30 01:57:25;;;;;;;14.20;7.00;;;;;;;-142.57;84.54;115900.28;4898026;29;20040;-84
2023/05/30 01:59:53;;;;;;;13.60;7.20;;;;;;;-142.57;83.89;115900.28;4881729;29;20528;-85
2023/05/30 02:02:19;;;;;;;18.15;8.18;;;;;;;-142.57;83.52;115900.28;4901595;29;20055;-85
2023/05/30 02:04:44;;;;;;;14.27;7.32;;;;;;;-142.57;84.80;115900.28;4902192;29;20475;-86
2023/05/30 02:07:11;;;;;;;16.02;7.70;;;;;;;-142.57;85.77;115900.28;4883759;29;20040;-83
2023/05/30 02:09:37;;;;;;;21.85;8.20;;;;;;;-142.57;87.20;115900.28;4900990;29;20055;-84
2023/05/30 02:12:04;;;;;;;17.27;7.65;;;;;;;-142.57;86.67;115900.28;4883788;29;20143;-85
2023/05/30 02:14:30;;;;;;;14.35;7.22;;;;;;;-142.57;86.95;115900.28;4901104;29;20095;-85
2023/05/30 02:16:59;;;;;;;12.38;7.53;;;;;;;-142.57;86.65;115900.28;4884858;29;20541;-85
2023/05/30 02:19:27;;;;;;;17.05;7.03;;;;;;;-142.57;85.00;115900.28;4884546;29;20036;-84
2023/05/30 02:21:53;;;;;;;15.65;7.43;;;;;;;-142.57;83.80;115900.28;4900813;29;20028;-86
2023/05/30 02:24:18;;;;;;;13.07;7.57;;;;;;;-142.57;83.32;115900.28;4902271;29;20041;-84
2023/05/30 02:26:44;;;;;;;13.73;6.63;;;;;;;-142.57;82.09;115900.28;4868637;29;20033;-83
2023/05/30 02:29:10;;;;;;;11.45;7.05;;;;;;;-142.57;82.62;115900.28;4883256;29;20036;-84
2023/05/30 02:31:35;;;;;;;15.77;7.20;;;;;;;-142.57;83.83;115900.28;4884496;29;20060;-84
2023/05/30 02:34:04;;;;;;;12.38;6.18;;;;;;;-142.57;84.05;115900.28;4884051;29;20407;-84
2023/05/30 02:36:30;;;;;;;17.38;7.35;;;;;;;-142.57;84.12;115900.28;4885176;29;20040;-83
2023/05/30 02:38:55;;;;;;;17.80;7.50;;;;;;;-142.57;83.76;115900.28;4905872;29;20077;-83
2023/05/30 02:41:23;;;;;;;19.08;8.90;;;;;;;-142.57;85.73;115900.28;4887262;29;20092;-82
2023/05/30 02:43:50;;;;;;;17.45;11.05;;;;;;;-142.57;87.91;115900.28;4901977;29;20040;-82
2023/05/30 02:46:16;;;;;;;20.27;10.57;;;;;;;-142.57;89.09;115900.28;4885510;29;20025;-83
2023/05/30 02:48:41;;;;;;;22.40;11.35;;;;;;;-142.57;91.61;115900.28;4883723;29;20045;-83
2023/05/30 02:51:07;;;;;;;22.05;11.48;;;;;;;-142.57;93.80;115900.28;4902719;29;20099;-83
2023/05/30 02:53:33;;;;;;;22.65;10.88;;;;;;;-142.57;92.22;115900.28;4885856;29;20495;-81
2023/05/30 02:55:59;;;;;;;17.60;10.05;;;;;;;-142.57;93.27;115900.28;4892021;29;20060;-82
2023/05/30 02:58:43;;;;;;;18.23;9.85;;;;;;;-142.57;93.53;115900.28;4913012;29;20139;-82
2023/05/30 03:01:31;;;;;;;22.70;10.50;;;;;;;-142.57;94.21;115900.28;4906168;29;20119;-83
2023/05/30 03:04:00;;;;;;;18.17;11.23;;;;;;;-142.57;93.96;115900.28;4889979;29;20041;-82
2023/05/30 03:06:31;;;;;;;22.88;11.10;;;;;;;-142.57;98.01;115900.28;4889208;29;20144;-85
2023/05/30 03:09:15;;;;;;;26.15;14.38;;;;;;;-142.57;97.35;115900.28;4903849;29;20080;-84
2023/05/30 03:11:41;;;;;;;24.00;13.48;;;;;;;-142.57;97.68;115900.28;4884242;29;20131;-84
2023/05/30 03:14:07;;;;;;;30.77;12.73;;;;;;;-142.57;99.09;115900.28;4883481;29;20066;-85
2023/05/30 03:16:33;;;;;;;14.10;9.15;;;;;;;-142.57;99.11;115900.28;4883566;29;20082;-85
2023/05/30 03:19:01;;;;;;;21.00;8.75;;;;;;;-142.57;100.00;115900.28;4900392;29;20517;-85
2023/05/30 03:21:28;;;;;;;14.18;8.68;;;;;;;-142.57;100.00;115900.28;4883363;29;20033;-85
2023/05/30 03:23:54;;;;;;;14.88;8.35;;;;;;;-142.57;98.00;115900.28;4883135;29;20020;-83
2023/05/30 03:26:25;;;;;;;12.57;7.72;;;;;;;-142.57;97.88;115900.28;4882963;29;20049;-85
2023/05/30 03:28:50;;;;;;;23.00;8.63;;;;;;;-142.57;99.42;115900.28;4883076;29;20406;-84
2023/05/30 03:31:24;;;;;;;15.30;8.20;;;;;;;-142.57;100.00;115900.28;4883426;29;20205;-84
2023/05/30 03:33:50;;;;;;;14.63;7.70;;;;;;;-142.57;100.00;115900.28;4899957;29;20066;-84
2023/05/30 03:36:17;;;;;;;16.08;8.52;;;;;;;-142.57;100.00;115900.28;4882834;29;20025;-82
2023/05/30 03:38:43;;;;;;;14.15;8.05;;;;;;;-142.57;100.00;115900.28;4883064;29;20072;-85
2023/05/30 03:41:09;;;;;;;16.65;8.18;;;;;;;-142.57;100.00;115900.28;4882793;29;20047;-85
2023/05/30 03:43:34;;;;;;;13.23;7.95;;;;;;;-142.57;100.00;115900.28;4882654;29;20048;-85
2023/05/30 03:46:00;;;;;;;18.92;8.60;;;;;;;-142.57;100.00;115900.28;4883497;29;20115;-84
2023/05/30 03:48:25;;;;;;;15.95;9.02;;;;;;;-142.57;100.00;115900.28;4882404;29;20049;-85
2023/05/30 03:50:53;;;;;;;21.45;9.48;;;;;;;-142.57;100.00;115900.28;4883322;29;20141;-85
2023/05/30 03:53:18;;;;;;;17.45;9.50;;;;;;;-142.57;100.00;115900.28;4883049;29;20062;-85
2023/05/30 03:55:44;;;;;;;22.20;9.27;;;;;;;-142.57;100.00;115900.28;4899684;29;20491;-85
2023/05/30 03:58:10;;;;;;;19.50;10.00;;;;;;;-142.57;100.00;115900.28;4884568;29;20041;-86
2023/05/30 04:00:36;;;;;;;21.60;9.40;;;;;;;-142.57;100.00;115900.28;4895527;29;20027;-85
2023/05/30 04:03:02;;;;;;;23.63;9.48;;;;;;;-142.57;100.00;115900.28;4906688;29;20563;-84
2023/05/30 04:05:28;;;;;;;20.20;9.98;;;;;;;-142.57;100.00;115900.28;4883211;29;20047;-84
2023/05/30 04:07:53;;;;;;;17.92;9.23;;;;;;;-142.57;100.00;115900.28;4882527;29;20104;-84
2023/05/30 04:10:19;;;;;;;18.40;9.40;;;;;;;-142.57;100.00;115900.28;4899875;29;20028;-86
2023/05/30 04:12:44;;;;;;;23.83;9.68;;;;;;;-142.57;100.00;115900.28;4899530;29;20049;-85
2023/05/30 04:15:10;;;;;;;26.52;10.10;;;;;;;-142.57;100.00;115900.28;4882465;29;20513;-83
2023/05/30 04:17:36;;;;;;;21.40;9.05;;;;;;;-142.57;100.00;115900.28;4882062;29;20041;-84
2023/05/30 04:20:06;;;;;;;20.98;9.25;;;;;;;-142.57;100.00;115900.28;4867325;29;20060;-83
2023/05/30 04:22:33;;;;;;;19.60;8.77;;;;;;;-142.57;100.00;115900.28;4882686;29;20036;-84
2023/05/30 04:24:59;;;;;;;18.02;9.05;;;;;;;-142.57;100.00;115900.28;4899921;29;20068;-84
2023/05/30 04:27:25;;;;;;;13.00;8.02;;;;;;;-142.57;100.00;115900.28;4867663;29;20546;-84
2023/05/30 04:29:51;;;;;;;15.48;8.00;;;;;;;-142.57;100.00;115900.28;4884281;29;20041;-84
2023/05/30 04:32:17;;;;;;;16.67;7.55;;;;;;;-142.57;100.00;115900.28;4884810;29;20139;-83
2023/05/30 04:34:43;;;;;;;14.57;8.57;;;;;;;-142.57;100.00;115900.28;4884975;29;20048;-84
2023/05/30 04:37:11;;;;;;;17.38;8.75;;;;;;;-142.57;100.00;115900.28;4900321;29;20036;-86
2023/05/30 04:39:38;;;;;;;14.35;8.27;;;;;;;-142.57;100.00;115900.28;4883934;29;20567;-84
2023/05/30 04:42:04;;;;;;;21.45;9.63;;;;;;;-142.57;100.00;115900.28;4885239;29;20188;-83
2023/05/30 04:44:37;;;;;;;18.60;9.18;;;;;;;-142.57;100.00;115900.28;4900114;29;20097;-83
2023/05/30 04:47:10;;;;;;;18.15;8.45;;;;;;;-142.57;100.00;115900.28;4885475;29;20039;-86
2023/05/30 04:49:41;;;;;;;16.52;8.90;;;;;;;-142.57;100.00;115900.28;4901852;29;20036;-85
2023/05/30 04:52:07;;;;;;;13.90;8.88;;;;;;;-142.57;99.36;115900.28;4882881;29;20047;-84
2023/05/30 04:54:33;;;;;;;20.23;8.65;;;;;;;-142.57;100.00;115900.28;4898441;29;20067;-85
2023/05/30 04:57:02;;;;;;;18.95;8.68;;;;;;;-142.57;100.00;115900.28;4881708;29;20191;-84
2023/05/30 04:59:27;;;;;;;20.80;9.90;;;;;;;-142.57;100.00;115900.28;4900148;29;20055;-84
2023/05/30 05:01:53;;;;;;;19.48;8.55;;;;;;;-142.57;100.00;115900.28;4905744;29;20036;-86
2023/05/30 05:04:19;;;;;;;22.30;9.20;;;;;;;-142.57;100.00;115900.28;4904048;29;20060;-84
2023/05/30 05:06:45;;;;;;;19.98;9.27;;;;;;;-142.57;100.00;115900.28;4888256;29;20049;-86
2023/05/30 05:09:11;;;;;;;20.60;9.75;;;;;;;-142.57;100.00;115900.28;4906072;29;20045;-86
2023/05/30 05:11:36;;;;;;;26.33;10.15;;;;;;;-142.57;100.00;115900.28;4906620;29;20076;-86
2023/05/30 05:14:02;;;;;;;22.25;10.05;;;;;;;-142.57;100.00;115900.28;4902710;29;20483;-86
2023/05/30 05:16:27;;;;;;;17.52;9.35;;;;;;;-142.57;100.00;115900.28;4902101;29;20036;-88
2023/05/30 05:18:53;;;;;;;29.83;9.45;;;;;;;-142.57;100.00;115900.28;4882387;29;20397;-86
2023/05/30 05:21:18;;;;;;;23.20;9.45;;;;;;;-142.57;100.00;115900.28;4899017;29;20123;-84
2023/05/30 05:23:44;;;;;;;28.42;9.52;;;;;;;-142.57;100.00;115900.28;4898711;29;20124;-83
2023/05/30 05:26:10;;;;;;;20.25;9.95;;;;;;;-142.57;100.00;115900.28;4899139;29;20041;-81
2023/05/30 05:28:35;;;;;;;20.30;8.50;;;;;;;-142.57;100.00;115900.28;4883892;29;20039;-85
2023/05/30 05:31:01;;;;;;;16.48;9.70;;;;;;;-142.57;99.57;115900.28;4867010;29;20041;-85
2023/05/30 05:33:27;;;;;;;26.50;9.48;;;;;;;-142.57;100.00;115900.28;4899508;29;20044;-84
2023/05/30 05:35:52;;;;;;;15.68;9.02;;;;;;;-142.57;100.00;115900.28;4902481;29;20044;-89
2023/05/30 05:38:27;;;;;;;18.95;9.43;;;;;;;-142.57;100.00;115900.28;4915485;29;20040;-90
2023/05/30 05:40:54;;;;;;;21.25;9.90;;;;;;;-142.57;100.00;115900.28;4905305;29;20044;-86
2023/05/30 05:43:20;;;;;;;23.42;9.70;;;;;;;-142.57;100.00;115900.28;4899972;29;20037;-84
2023/05/30 05:45:45;;;;;;;19.58;9.40;;;;;;;-142.57;100.00;115900.28;4903899;29;20049;-84
2023/05/30 05:48:11;;;;;;;22.15;9.48;;;;;;;-142.57;100.00;115900.28;4898615;29;20092;-84
2023/05/30 05:50:36;;;;;;;21.52;9.05;;;;;;;-142.57;100.00;115900.28;4898887;29;20395;-85
2023/05/30 05:53:02;;;;;;;22.10;9.55;;;;;;;-142.57;100.00;115900.28;4883022;29;20116;-83
2023/05/30 05:55:27;;;;;;;19.98;9.57;;;;;;;-142.57;100.00;115900.28;4872744;29;20045;-81
2023/05/30 05:57:53;;;;;;;14.88;9.23;;;;;;;-142.57;100.00;115900.28;4890326;29;20036;-84
2023/05/30 06:00:19;;;;;;;21.52;9.38;;;;;;;-142.57;100.00;115900.28;4887996;29;20123;-82
2023/05/30 06:02:44;;;;;;;17.05;10.10;;;;;;;-142.57;100.00;115900.28;4891186;29;20124;-80
2023/05/30 06:05:10;;;;;;;21.60;9.90;;;;;;;-142.57;100.00;115900.28;4889519;29;20462;-86
2023/05/30 06:07:36;;;;;;;25.20;10.70;;;;;;;-142.57;100.00;115900.28;4889035;29;20097;-87
2023/05/30 06:10:01;;;;;;;19.63;9.23;;;;;;;-142.57;100.00;115900.28;4888954;29;20455;-83
2023/05/30 06:12:27;;;;;;;23.95;9.68;;;;;;;-142.57;100.00;115900.28;4877702;29;20664;-82
2023/05/30 06:14:52;;;;;;;30.75;9.63;;;;;;;-142.57;100.00;115900.28;4889342;29;20117;-83
2023/05/30 06:17:18;;;;;;;18.23;9.30;;;;;;;-142.57;100.00;115900.28;4887865;29;20051;-83
2023/05/30 06:19:43;;;;;;;25.23;9.25;;;;;;;-142.57;99.96;115900.28;4892159;29;20149;-85
2023/05/30 06:22:09;;;;;;;19.95;9.88;;;;;;;-142.57;100.00;115900.28;4891834;29;20069;-83
2023/05/30 06:24:36;;;;;;;17.73;9.70;;;;;;;-142.57;100.00;115900.28;4891157;29;20075;-83
2023/05/30 06:27:02;;;;;;;17.92;9.57;;;;;;;-142.57;100.00;115900.28;4891709;29;20052;-81
2023/05/30 06:29:29;;;;;;;17.83;9.93;;;;;;;-142.57;100.00;115900.28;4886624;29;20398;-87
2023/05/30 06:31:55;;;;;;;26.42;10.40;;;;;;;-142.57;100.00;115900.28;4892300;29;20037;-83
2023/05/30 06:34:23;;;;;;;22.08;10.43;;;;;;;-142.57;100.00;115900.28;4892141;29;20032;-85
2023/05/30 06:36:48;;;;;;;38.30;10.68;;;;;;;-142.57;100.00;115900.28;4893713;29;20331;-81
2023/05/30 06:39:15;;;;;;;30.92;11.27;;;;;;;-142.57;98.20;115900.28;4893239;29;20044;-86
2023/05/30 06:41:43;;;;;;;21.88;10.90;;;;;;;-142.57;95.78;115900.28;4893194;29;20068;-84
2023/05/30 06:44:09;;;;;;;25.63;10.60;;;;;;;-142.57;92.78;115900.28;4891658;29;20077;-87
2023/05/30 06:46:35;;;;;;;20.52;10.63;;;;;;;-142.57;89.37;115900.28;4894511;29;20056;-85
2023/05/30 06:49:00;;;;;;;17.92;10.00;;;;;;;-142.57;87.00;115900.28;4883045;29;20056;-82
2023/05/30 06:51:26;;;;;;;23.33;11.18;;;;;;;-142.57;86.10;115900.28;4896354;29;20039;-85
2023/05/30 06:53:55;;;;;;;22.23;10.30;;;;;;;-142.57;84.14;115900.28;4885889;29;20036;-83
2023/05/30 06:56:26;;;;;;;20.75;10.35;;;;;;;-142.57;83.11;115900.28;4892867;29;20045;-86
2023/05/30 06:58:51;;;;;;;25.00;11.23;;;;;;;-142.57;84.22;115900.28;4895432;29;20037;-87
2023/05/30 07:01:17;;;;;;;29.23;11.32;;;;;;;-142.57;84.07;115900.28;4895538;29;20462;-84
2023/05/30 07:03:42;;;;;;;23.17;10.82;;;;;;;-142.57;82.33;115900.28;4882852;29;20483;-86
2023/05/30 07:06:08;;;;;;;20.17;11.40;;;;;;;-142.57;77.17;115900.28;4883504;29;20096;-89
2023/05/30 07:08:33;;;;;;;19.73;11.43;;;;;;;-142.57;76.15;115900.28;4891052;29;20103;-84
2023/05/30 07:10:59;;;;;;;34.22;13.05;;;;;;;-142.57;75.85;115900.28;4889217;29;20028;-83
2023/05/30 07:13:24;;;;;;;23.92;11.65;;;;;;;-142.57;74.38;115900.28;4889770;29;20043;-83
2023/05/30 07:15:51;;;;;;;22.88;11.52;;;;;;;-142.57;73.35;115900.28;4894487;29;20037;-84
2023/05/30 07:18:17;;;;;;;27.23;11.63;;;;;;;-142.57;66.29;115900.28;4896841;29;20180;-82
2023/05/30 07:20:42;;;;;;;25.50;11.77;;;;;;;-142.57;64.06;115900.28;4896252;29;20033;-86
2023/05/30 07:23:08;;;;;;;27.58;11.68;;;;;;;-142.57;65.25;115900.28;4898409;29;20040;-84
2023/05/30 07:25:33;;;;;;;22.70;11.70;;;;;;;-142.57;62.85;115900.28;4897558;29;20116;-82
2023/05/30 07:27:59;;;;;;;19.45;11.30;;;;;;;-142.57;59.31;115900.28;4897271;29;20052;-88
2023/05/30 07:30:25;;;;;;;26.30;11.77;;;;;;;-142.57;59.39;115900.28;4897904;29;20036;-80
2023/05/30 07:32:51;;;;;;;22.63;11.57;;;;;;;-142.57;61.15;115900.28;4898195;29;20040;-88
2023/05/30 07:35:16;;;;;;;26.27;11.70;;;;;;;-142.57;62.74;115900.28;4897044;29;20064;-81
2023/05/30 07:37:42;;;;;;;26.48;12.57;;;;;;;-142.57;67.39;115900.28;4898944;29;20227;-88
2023/05/30 07:40:08;;;;;;;25.50;11.32;;;;;;;-142.57;70.45;115900.28;4885481;29;20058;-88
2023/05/30 07:42:36;;;;;;;23.67;12.43;;;;;;;-142.57;68.75;115900.28;4899403;29;20044;-84
2023/05/30 07:45:02;;;;;;;24.88;11.80;;;;;;;-142.57;69.35;115900.28;4901071;29;20037;-88
2023/05/30 07:47:28;;;;;;;30.08;12.10;;;;;;;-142.57;71.16;115900.28;4901448;29;20029;-87
2023/05/30 07:49:54;;;;;;;18.75;12.30;;;;;;;-142.57;72.98;115900.28;4902404;29;20042;-86
2023/05/30 07:52:20;;;;;;;28.10;12.00;;;;;;;-142.57;71.68;115900.28;4901534;29;20093;-88
2023/05/30 07:54:45;;;;;;;22.98;12.07;;;;;;;-142.57;72.81;115900.28;4895684;29;20037;-87
2023/05/30 07:57:13;;;;;;;28.25;11.85;;;;;;;-142.57;72.21;115900.28;4897831;29;20039;-84
2023/05/30 07:59:42;;;;;;;28.35;13.23;;;;;;;-142.57;72.27;115900.28;4900863;29;20539;-84
2023/05/30 08:02:08;;;;;;;23.55;12.20;;;;;;;-142.57;74.38;115900.28;4899973;29;20045;-86
2023/05/30 08:04:34;;;;;;;21.27;11.13;;;;;;;-142.57;73.27;115900.28;4899823;29;20033;-83
2023/05/30 08:07:02;;;;;;;29.20;12.18;;;;;;;-142.57;70.63;115900.28;4899827;29;20104;-86
2023/05/30 08:09:28;;;;;;;32.80;12.52;;;;;;;-142.57;67.06;115900.28;4900110;29;20505;-84
2023/05/30 08:11:54;;;;;;;21.15;11.05;;;;;;;-142.57;65.08;115900.28;4900248;29;20048;-86
2023/05/30 08:14:20;;;;;;;25.00;11.48;;;;;;;-142.57;63.84;115900.28;4900030;29;20032;-86
2023/05/30 08:16:45;;;;;;;22.60;10.68;;;;;;;-142.57;58.04;115900.28;4883013;29;20059;-86
2023/05/30 08:19:11;;;;;;;21.90;10.65;;;;;;;-142.57;56.73;115900.28;4880172;29;20069;-86
2023/05/30 08:21:36;;;;;;;23.10;11.35;;;;;;;-142.57;56.31;115900.28;4899747;29;20368;-87
2023/05/30 08:24:02;;;;;;;27.98;10.95;;;;;;;-142.57;53.71;115900.28;4900516;29;20028;-86
2023/05/30 08:26:31;;;;;;;20.92;10.75;;;;;;;-142.57;52.52;115900.28;4899419;29;20117;-83
2023/05/30 08:28:58;;;;;;;16.92;8.57;;;;;;;-142.57;51.37;115900.28;4900436;29;20040;-83
2023/05/30 08:31:24;;;;;;;16.63;7.85;;;;;;;-142.57;49.38;115900.28;4899962;29;20039;-85
2023/05/30 08:33:50;;;;;;;18.83;9.07;;;;;;;-142.57;50.19;115900.28;4900144;29;20032;-87
2023/05/30 08:36:16;;;;;;;17.65;8.85;;;;;;;-142.57;46.97;115900.28;4899868;29;20036;-83
2023/05/30 08:38:41;;;;;;;14.88;8.98;;;;;;;-142.57;47.28;115900.28;4900965;29;20169;-88
2023/05/30 08:41:07;;;;;;;16.73;9.48;;;;;;;-142.57;46.92;115900.28;4881843;29;20064;-84
2023/05/30 08:43:33;;;;;;;20.73;8.25;;;;;;;-142.57;46.87;115900.28;4883889;29;20115;-80
2023/05/30 08:45:59;;;;;;;24.45;9.20;;;;;;;-142.57;46.43;115900.28;4900694;29;20047;-80
2023/05/30 08:48:29;;;;;;;22.52;8.15;;;;;;;-142.57;46.33;115900.28;4899460;29;20407;-81
2023/05/30 08:50:54;;;;;;;14.13;8.45;;;;;;;-142.57;44.31;115900.28;4899212;29;20475;-82
2023/05/30 08:53:30;;;;;;;15.52;8.65;;;;;;;-142.57;44.93;115900.28;4899277;29;20029;-82
2023/05/30 08:56:02;;;;;;;16.17;8.27;;;;;;;-142.57;45.66;115900.28;4899015;29;20530;-84
2023/05/30 08:58:53;;;;;;;15.93;7.85;;;;;;;-142.57;45.32;115900.28;4899756;29;20112;-84
2023/05/30 09:01:22;;;;;;;13.45;6.78;;;;;;;-142.57;44.51;115900.28;4901041;29;20045;-85
2023/05/30 09:03:52;;;;;;;13.85;6.45;;;;;;;-142.57;45.33;115900.28;4902275;29;20044;-83
2023/05/30 09:06:18;;;;;;;12.95;7.57;;;;;;;-142.57;45.90;115900.28;4900707;29;20047;-85
2023/05/30 09:08:45;;;;;;;19.52;7.80;;;;;;;-142.57;46.46;115900.28;4884578;29;20398;-87
2023/05/30 09:11:13;;;;;;;18.85;8.13;;;;;;;-142.57;46.50;115900.28;4886560;29;20083;-83
2023/05/30 09:13:41;;;;;;;14.25;9.23;;;;;;;-142.57;46.85;115900.28;4887071;29;20032;-84
2023/05/30 09:16:08;;;;;;;16.20;9.38;;;;;;;-142.57;48.71;115900.28;4903212;29;20112;-85
2023/05/30 09:18:34;;;;;;;12.80;8.38;;;;;;;-142.57;48.82;115900.28;4904209;29;20032;-82
2023/05/30 09:21:00;;;;;;;14.77;8.68;;;;;;;-142.57;46.77;115900.28;4903431;29;20510;-83
2023/05/30 09:23:27;;;;;;;13.10;8.32;;;;;;;-142.57;47.86;115900.28;4902108;29;20562;-82
2023/05/30 09:25:52;;;;;;;16.80;9.95;;;;;;;-142.57;47.03;115900.28;4884725;29;20115;-83
2023/05/30 09:28:25;;;;;;;21.58;10.15;;;;;;;-142.57;47.55;115900.28;4903177;29;20127;-84
2023/05/30 09:30:55;;;;;;;18.67;9.65;;;;;;;-142.57;48.13;115900.28;4885302;29;20045;-84
2023/05/30 09:33:22;;;;;;;16.95;9.60;;;;;;;-142.57;46.70;115900.28;4872249;29;20055;-85
2023/05/30 09:35:56;;;;;;;15.38;6.60;;;;;;;-142.57;42.35;115900.28;4894103;29;20044;-82
2023/05/30 09:38:24;;;;;;;13.70;6.95;;;;;;;-142.57;40.88;115900.28;4900034;29;20059;-84
2023/05/30 09:40:56;;;;;;;12.38;6.70;;;;;;;-142.57;40.31;115900.28;4901458;29;20072;-85
2023/05/30 09:43:35;;;;;;;13.95;6.35;;;;;;;-142.57;40.28;115900.28;4886194;29;20045;-82
2023/05/30 09:46:05;;;;;;;11.20;5.95;;;;;;;-142.57;39.95;115900.28;4887705;29;20041;-83
2023/05/30 09:48:32;;;;;;;14.80;6.60;;;;;;;-142.57;41.64;115900.28;4877952;29;20172;-84
2023/05/30 09:51:01;;;;;;;15.65;6.93;;;;;;;-142.57;40.87;115900.28;4881182;29;20036;-84
2023/05/30 09:53:33;;;;;;;19.25;5.93;;;;;;;-142.57;40.97;115900.28;4880582;29;20470;-83
2023/05/30 09:56:01;;;;;;;11.50;6.47;;;;;;;-142.57;41.77;115900.28;4888510;29;20045;-81
2023/05/30 09:58:26;;;;;;;21.35;6.57;;;;;;;-142.57;41.45;115900.28;4897519;29;20117;-84
2023/05/30 10:00:54;;;;;;;15.10;6.38;;;;;;;-142.57;41.99;115900.28;4900554;29;20474;-83
2023/05/30 10:03:21;;;;;;;11.20;6.63;;;;;;;-142.57;41.46;115900.28;4883542;29;20036;-88
2023/05/30 10:05:48;;;;;;;15.15;7.03;;;;;;;-142.57;42.15;115900.28;4882514;29;20434;-84
2023/05/30 10:08:14;;;;;;;15.27;6.88;;;;;;;-142.57;43.20;115900.28;4884739;29;20089;-83
2023/05/30 10:10:41;;;;;;;12.13;7.07;;;;;;;-142.57;45.01;115900.28;4881238;29;20479;-86
2023/05/30 10:13:07;;;;;;;13.32;7.15;;;;;;;-142.57;44.99;115900.28;4901619;29;20424;-87
2023/05/30 10:15:33;;;;;;;14.00;6.63;;;;;;;-142.57;46.13;115900.28;4903689;29;20040;-86
2023/05/30 10:18:03;;;;;;;17.90;7.43;;;;;;;-142.57;45.50;115900.28;4903733;29;20371;-85
2023/05/30 10:20:30;;;;;;;14.77;7.50;;;;;;;-142.57;45.33;115900.28;4902837;29;20491;-83
2023/05/30 10:22:57;;;;;;;13.70;6.72;;;;;;;-142.57;46.86;115900.28;4885689;29;20455;-86
2023/05/30 10:25:28;;;;;;;12.98;7.55;;;;;;;-142.57;46.16;115900.28;4870901;29;20133;-85
2023/05/30 10:27:56;;;;;;;16.88;7.70;;;;;;;-142.57;45.84;115900.28;4872519;29;20119;-88
2023/05/30 10:30:33;;;;;;;10.85;6.60;;;;;;;-142.57;44.89;115900.28;4880894;29;20391;-86
2023/05/30 10:33:09;;;;;;;15.13;7.85;;;;;;;-142.57;44.64;115900.28;4899012;29;20088;-88
2023/05/30 10:35:35;;;;;;;17.23;6.85;;;;;;;-142.57;44.98;115900.28;4899360;29;20040;-89
2023/05/30 10:38:18;;;;;;;13.23;7.78;;;;;;;-142.57;45.24;115900.28;4886253;29;20119;-91
2023/05/30 10:46:36;;;;;;;15.18;6.32;;;;;;;-142.57;44.48;115900.28;3199605;27;20036;-88
2023/05/30 10:49:09;;;;;;;12.82;7.78;;;;;;;-142.57;44.49;115900.28;4916872;29;20092;-88
2023/05/30 10:52:17;;;;;;;13.73;7.60;;;;;;;-142.57;44.53;115900.28;4932500;29;20043;-89
2023/05/30 10:54:47;;;;;;;15.60;8.02;;;;;;;-142.57;44.44;115900.28;4932734;29;20046;-89
2023/05/30 10:57:23;;;;;;;13.93;7.30;;;;;;;-142.57;44.27;115900.28;4895948;29;20047;-88
2023/05/30 10:59:49;;;;;;;16.52;7.68;;;;;;;-142.57;44.18;115900.28;4908573;29;20037;-88
2023/05/30 11:02:20;;;;;;;11.55;7.15;;;;;;;-142.57;44.80;115900.28;4930395;29;20066;-89
2023/05/30 11:04:54;;;;;;;13.35;7.88;;;;;;;-142.57;45.33;115900.28;4917450;29;20123;-90